Weather at Lunda Airfield

Public forecast

Using degrees Celsius for public forecast. Weather courtesy of forecast.io.

Closest aviation weather report (METAR) to Lunda Airfield

Closest report is Ärna Air Base, 21.0 nm (38.8 km) SW.

2024/06/13 19:50 (retrieved 26 minutes ago)

ESCM 131950Z AUTO 22002KT 9999 FEW080/// BKN096/// 11/09 Q1011

Closest aviation forecast (TAF) to Lunda Airfield

Closest forecast is Stockholm-Arlanda Airport, 29.6 nm (54.7 km) S.

2024/06/13 18:33 (retrieved 2 hours ago)

TAF ESSA 131730Z 1318/1418 VRB03KT CAVOK TEMPO 1412/1418 SCT030TCU